sensor_id;sensor_type;location;lat;lon;timestamp;pressure;altitude;pressure_sealevel;temperature;humidity
76434;BME280;65265;53.200;6.080;2023-09-19T00:00:42;100414.44;;;13.88;100.00
76434;BME280;65265;53.200;6.080;2023-09-19T00:05:38;100412.78;;;13.93;100.00
76434;BME280;65265;53.200;6.080;2023-09-19T00:10:31;100417.19;;;13.97;100.00
76434;BME280;65265;53.200;6.080;2023-09-19T00:15:27;100426.63;;;13.99;100.00
76434;BME280;65265;53.200;6.080;2023-09-19T00:20:19;100433.31;;;13.90;100.00
76434;BME280;65265;53.200;6.080;2023-09-19T00:25:13;100440.13;;;13.88;100.00
76434;BME280;65265;53.200;6.080;2023-09-19T00:30:07;100439.16;;;13.81;100.00
76434;BME280;65265;53.200;6.080;2023-09-19T00:35:06;100441.69;;;13.80;100.00
76434;BME280;65265;53.200;6.080;2023-09-19T00:39:59;100445.13;;;13.82;100.00
76434;BME280;65265;53.200;6.080;2023-09-19T00:44:50;100449.28;;;13.74;100.00
76434;BME280;65265;53.200;6.080;2023-09-19T00:49:42;100461.13;;;13.67;100.00
76434;BME280;65265;53.200;6.080;2023-09-19T00:54:35;100462.63;;;13.58;100.00
76434;BME280;65265;53.200;6.080;2023-09-19T00:59:27;100468.66;;;13.60;100.00
76434;BME280;65265;53.200;6.080;2023-09-19T01:04:20;100472.72;;;13.50;100.00
76434;BME280;65265;53.200;6.080;2023-09-19T01:09:12;100473.69;;;13.54;100.00
76434;BME280;65265;53.200;6.080;2023-09-19T01:14:13;100478.81;;;13.54;100.00
76434;BME280;65265;53.200;6.080;2023-09-19T01:19:28;100484.63;;;13.45;100.00
76434;BME280;65265;53.200;6.080;2023-09-19T01:24:40;100485.31;;;13.38;100.00
76434;BME280;65265;53.200;6.080;2023-09-19T01:29:39;100492.13;;;13.36;100.00
76434;BME280;65265;53.200;6.080;2023-09-19T01:34:50;100491.13;;;13.30;100.00
76434;BME280;65265;53.200;6.080;2023-09-19T01:39:43;100497.16;;;13.32;100.00
76434;BME280;65265;53.200;6.080;2023-09-19T01:44:40;100503.19;;;13.34;100.00
76434;BME280;65265;53.200;6.080;2023-09-19T01:49:42;100508.31;;;13.34;100.00
76434;BME280;65265;53.200;6.080;2023-09-19T01:54:42;100498.81;;;13.30;100.00
76434;BME280;65265;53.200;6.080;2023-09-19T01:59:43;100497.91;;;13.28;100.00
76434;BME280;65265;53.200;6.080;2023-09-19T02:04:36;100488.31;;;13.21;100.00
76434;BME280;65265;53.200;6.080;2023-09-19T02:09:28;100488.31;;;13.21;100.00
76434;BME280;65265;53.200;6.080;2023-09-19T02:14:21;100493.56;;;13.25;100.00
76434;BME280;65265;53.200;6.080;2023-09-19T02:19:12;100493.47;;;13.21;100.00
76434;BME280;65265;53.200;6.080;2023-09-19T02:24:04;100494.34;;;13.23;100.00
76434;BME280;65265;53.200;6.080;2023-09-19T02:28:57;100504.50;;;13.17;100.00
76434;BME280;65265;53.200;6.080;2023-09-19T02:33:51;100495.84;;;13.13;100.00
76434;BME280;65265;53.200;6.080;2023-09-19T02:38:42;100482.84;;;13.06;100.00
76434;BME280;65265;53.200;6.080;2023-09-19T02:43:34;100508.09;;;13.23;100.00
76434;BME280;65265;53.200;6.080;2023-09-19T02:48:26;100519.25;;;13.27;100.00
76434;BME280;65265;53.200;6.080;2023-09-19T02:53:21;100517.75;;;13.35;100.00
76434;BME280;65265;53.200;6.080;2023-09-19T02:58:12;100512.69;;;13.38;100.00
76434;BME280;65265;53.200;6.080;2023-09-19T03:03:04;100505.09;;;13.42;100.00
76434;BME280;65265;53.200;6.080;2023-09-19T03:07:56;100497.63;;;13.53;100.00
76434;BME280;65265;53.200;6.080;2023-09-19T03:12:52;100509.66;;;13.54;100.00
76434;BME280;65265;53.200;6.080;2023-09-19T03:17:43;100527.84;;;13.63;100.00
76434;BME280;65265;53.200;6.080;2023-09-19T03:22:35;100526.19;;;13.66;100.00
76434;BME280;65265;53.200;6.080;2023-09-19T03:27:27;100518.66;;;13.74;100.00
76434;BME280;65265;53.200;6.080;2023-09-19T03:32:20;100528.84;;;13.71;100.00
76434;BME280;65265;53.200;6.080;2023-09-19T03:37:11;100520.91;;;13.60;100.00
76434;BME280;65265;53.200;6.080;2023-09-19T03:42:03;100519.09;;;13.55;100.00
76434;BME280;65265;53.200;6.080;2023-09-19T03:46:57;100525.84;;;13.50;100.00
76434;BME280;65265;53.200;6.080;2023-09-19T03:51:50;100526.56;;;13.46;100.00
76434;BME280;65265;53.200;6.080;2023-09-19T03:56:41;100526.63;;;13.49;100.00
76434;BME280;65265;53.200;6.080;2023-09-19T04:01:33;100522.44;;;13.51;100.00
76434;BME280;65265;53.200;6.080;2023-09-19T04:06:25;100527.28;;;13.39;100.00
76434;BME280;65265;53.200;6.080;2023-09-19T04:11:19;100535.78;;;13.36;100.00
76434;BME280;65265;53.200;6.080;2023-09-19T04:16:11;100532.22;;;13.31;100.00
76434;BME280;65265;53.200;6.080;2023-09-19T04:21:03;100520.38;;;13.36;100.00
76434;BME280;65265;53.200;6.080;2023-09-19T04:25:55;100543.44;;;13.35;100.00
76434;BME280;65265;53.200;6.080;2023-09-19T04:30:49;100540.13;;;13.39;100.00
76434;BME280;65265;53.200;6.080;2023-09-19T04:35:41;100552.97;;;13.39;100.00
76434;BME280;65265;53.200;6.080;2023-09-19T04:40:33;100551.31;;;13.42;100.00
76434;BME280;65265;53.200;6.080;2023-09-19T04:45:25;100549.03;;;13.54;100.00
76434;BME280;65265;53.200;6.080;2023-09-19T04:50:19;100551.72;;;13.59;100.00
76434;BME280;65265;53.200;6.080;2023-09-19T04:55:11;100557.03;;;13.66;100.00
76434;BME280;65265;53.200;6.080;2023-09-19T05:00:07;100556.22;;;13.67;100.00
76434;BME280;65265;53.200;6.080;2023-09-19T05:05:03;100551.13;;;13.70;100.00
76434;BME280;65265;53.200;6.080;2023-09-19T05:09:56;100557.38;;;13.81;100.00
76434;BME280;65265;53.200;6.080;2023-09-19T05:14:47;100564.34;;;13.87;100.00
76434;BME280;65265;53.200;6.080;2023-09-19T05:19:39;100567.78;;;13.87;100.00
76434;BME280;65265;53.200;6.080;2023-09-19T05:24:30;100570.44;;;13.90;100.00
76434;BME280;65265;53.200;6.080;2023-09-19T05:29:23;100569.66;;;13.94;100.00
76434;BME280;65265;53.200;6.080;2023-09-19T05:34:15;100572.38;;;14.00;100.00
76434;BME280;65265;53.200;6.080;2023-09-19T05:39:06;100574.13;;;14.03;100.00
76434;BME280;65265;53.200;6.080;2023-09-19T05:43:59;100566.56;;;14.10;100.00
76434;BME280;65265;53.200;6.080;2023-09-19T05:48:52;100566.56;;;14.09;100.00
76434;BME280;65265;53.200;6.080;2023-09-19T05:53:44;100583.75;;;14.11;100.00
76434;BME280;65265;53.200;6.080;2023-09-19T05:58:38;100595.09;;;14.18;100.00
76434;BME280;65265;53.200;6.080;2023-09-19T06:03:30;100602.06;;;14.25;100.00
76434;BME280;65265;53.200;6.080;2023-09-19T06:08:23;100592.78;;;14.31;100.00
76434;BME280;65265;53.200;6.080;2023-09-19T06:13:16;100596.13;;;14.27;100.00
76434;BME280;65265;53.200;6.080;2023-09-19T06:18:11;100601.38;;;14.32;100.00
76434;BME280;65265;53.200;6.080;2023-09-19T06:23:05;100594.56;;;14.34;100.00
76434;BME280;65265;53.200;6.080;2023-09-19T06:27:58;100600.69;;;14.39;100.00
76434;BME280;65265;53.200;6.080;2023-09-19T06:32:49;100608.41;;;14.40;100.00
76434;BME280;65265;53.200;6.080;2023-09-19T06:37:42;100602.63;;;14.50;100.00
76434;BME280;65265;53.200;6.080;2023-09-19T06:42:33;100598.34;;;14.52;100.00
76434;BME280;65265;53.200;6.080;2023-09-19T06:47:28;100587.31;;;14.57;100.00
76434;BME280;65265;53.200;6.080;2023-09-19T06:52:20;100588.09;;;14.53;100.00
76434;BME280;65265;53.200;6.080;2023-09-19T06:57:12;100589.84;;;14.54;100.00
76434;BME280;65265;53.200;6.080;2023-09-19T07:02:04;100599.56;;;14.70;100.00
76434;BME280;65265;53.200;6.080;2023-09-19T07:06:57;100604.81;;;14.75;100.00
76434;BME280;65265;53.200;6.080;2023-09-19T07:11:49;100617.03;;;14.85;100.00
76434;BME280;65265;53.200;6.080;2023-09-19T07:16:41;100610.53;;;15.05;97.12
76434;BME280;65265;53.200;6.080;2023-09-19T07:21:34;100609.66;;;15.04;97.14
76434;BME280;65265;53.200;6.080;2023-09-19T07:26:29;100620.94;;;15.09;97.89
76434;BME280;65265;53.200;6.080;2023-09-19T07:31:21;100612.31;;;15.09;98.37
76434;BME280;65265;53.200;6.080;2023-09-19T07:36:13;100620.97;;;15.11;99.89
76434;BME280;65265;53.200;6.080;2023-09-19T07:41:05;100620.31;;;15.22;97.29
76434;BME280;65265;53.200;6.080;2023-09-19T07:45:57;100622.19;;;15.31;98.28
76434;BME280;65265;53.200;6.080;2023-09-19T07:50:50;100624.91;;;15.38;96.87
76434;BME280;65265;53.200;6.080;2023-09-19T07:55:42;100619.84;;;15.44;98.50
76434;BME280;65265;53.200;6.080;2023-09-19T08:00:38;100621.72;;;15.51;96.08
76434;BME280;65265;53.200;6.080;2023-09-19T08:05:31;100613.97;;;15.53;96.01
76434;BME280;65265;53.200;6.080;2023-09-19T08:10:23;100614.06;;;15.56;95.56
76434;BME280;65265;53.200;6.080;2023-09-19T08:15:19;100609.78;;;15.58;96.22
76434;BME280;65265;53.200;6.080;2023-09-19T08:20:11;100616.75;;;15.63;97.50
76434;BME280;65265;53.200;6.080;2023-09-19T08:25:07;100611.75;;;15.74;97.47
76434;BME280;65265;53.200;6.080;2023-09-19T08:29:59;100620.72;;;15.98;96.10
76434;BME280;65265;53.200;6.080;2023-09-19T08:34:50;100615.69;;;16.07;99.27
76434;BME280;65265;53.200;6.080;2023-09-19T08:39:41;100608.09;;;16.18;96.76
76434;BME280;65265;53.200;6.080;2023-09-19T08:44:37;100589.50;;;16.41;94.24
76434;BME280;65265;53.200;6.080;2023-09-19T08:49:37;100607.78;;;16.59;93.85
76434;BME280;65265;53.200;6.080;2023-09-19T08:54:37;100620.06;;;16.78;92.70
76434;BME280;65265;53.200;6.080;2023-09-19T08:59:29;100608.25;;;16.99;93.88
76434;BME280;65265;53.200;6.080;2023-09-19T09:04:22;100635.00;;;17.04;88.80
76434;BME280;65265;53.200;6.080;2023-09-19T09:09:16;100623.88;;;17.13;84.65
76434;BME280;65265;53.200;6.080;2023-09-19T09:14:08;100613.53;;;17.10;83.74
76434;BME280;65265;53.200;6.080;2023-09-19T09:19:00;100623.19;;;17.30;86.70
76434;BME280;65265;53.200;6.080;2023-09-19T09:23:53;100624.25;;;17.49;86.46
76434;BME280;65265;53.200;6.080;2023-09-19T09:28:45;100613.91;;;17.49;81.67
76434;BME280;65265;53.200;6.080;2023-09-19T09:33:38;100607.91;;;17.51;83.12
76434;BME280;65265;53.200;6.080;2023-09-19T09:38:43;100607.19;;;17.67;85.12
76434;BME280;65265;53.200;6.080;2023-09-19T09:43:38;100606.31;;;17.68;83.96
76434;BME280;65265;53.200;6.080;2023-09-19T09:48:30;100606.34;;;17.74;80.80
76434;BME280;65265;53.200;6.080;2023-09-19T09:53:23;100596.75;;;17.60;82.42
76434;BME280;65265;53.200;6.080;2023-09-19T09:58:18;100595.13;;;17.72;86.96
76434;BME280;65265;53.200;6.080;2023-09-19T10:03:20;100596.09;;;17.86;94.85
76434;BME280;65265;53.200;6.080;2023-09-19T10:08:13;100587.47;;;17.86;98.49
76434;BME280;65265;53.200;6.080;2023-09-19T10:13:11;100584.03;;;17.90;95.98
76434;BME280;65265;53.200;6.080;2023-09-19T10:18:05;100577.09;;;17.87;93.55
76434;BME280;65265;53.200;6.080;2023-09-19T10:23:03;100564.25;;;18.01;93.62
76434;BME280;65265;53.200;6.080;2023-09-19T10:28:00;100560.88;;;18.14;91.87
76434;BME280;65265;53.200;6.080;2023-09-19T10:32:59;100563.44;;;18.03;96.41
76434;BME280;65265;53.200;6.080;2023-09-19T10:37:54;100561.69;;;18.01;94.47
76434;BME280;65265;53.200;6.080;2023-09-19T10:42:48;100566.03;;;18.08;94.60
76434;BME280;65265;53.200;6.080;2023-09-19T10:47:41;100547.84;;;17.91;95.41
76434;BME280;65265;53.200;6.080;2023-09-19T10:52:33;100553.78;;;17.77;97.99
76434;BME280;65265;53.200;6.080;2023-09-19T10:57:25;100550.16;;;17.51;98.37
76434;BME280;65265;53.200;6.080;2023-09-19T11:02:19;100533.59;;;17.34;100.00
76434;BME280;65265;53.200;6.080;2023-09-19T11:07:11;100563.69;;;17.26;100.00
76434;BME280;65265;53.200;6.080;2023-09-19T11:12:05;100531.06;;;17.37;100.00
76434;BME280;65265;53.200;6.080;2023-09-19T11:17:34;100527.75;;;17.50;99.12
76434;BME280;65265;53.200;6.080;2023-09-19T11:28:28;100519.97;;;17.48;98.12
76434;BME280;65265;53.200;6.080;2023-09-19T11:33:23;100500.19;;;17.52;98.40
76434;BME280;65265;53.200;6.080;2023-09-19T11:38:18;100501.13;;;17.66;97.88
76434;BME280;65265;53.200;6.080;2023-09-19T11:43:30;100512.31;;;17.62;97.99
76434;BME280;65265;53.200;6.080;2023-09-19T11:48:26;100496.72;;;17.50;99.10
76434;BME280;65265;53.200;6.080;2023-09-19T11:53:17;100494.94;;;17.40;99.47
76434;BME280;65265;53.200;6.080;2023-09-19T11:58:10;100491.34;;;17.24;100.00
76434;BME280;65265;53.200;6.080;2023-09-19T12:03:08;100510.19;;;17.16;100.00
76434;BME280;65265;53.200;6.080;2023-09-19T12:08:01;100534.09;;;16.91;100.00
76434;BME280;65265;53.200;6.080;2023-09-19T12:12:53;100520.94;;;16.64;100.00
76434;BME280;65265;53.200;6.080;2023-09-19T12:17:47;100521.53;;;16.41;100.00
76434;BME280;65265;53.200;6.080;2023-09-19T12:22:39;100501.94;;;16.58;100.00
76434;BME280;65265;53.200;6.080;2023-09-19T12:27:42;100487.47;;;16.73;100.00
76434;BME280;65265;53.200;6.080;2023-09-19T12:32:37;100474.66;;;16.85;100.00
76434;BME280;65265;53.200;6.080;2023-09-19T12:37:30;100463.59;;;17.04;100.00
76434;BME280;65265;53.200;6.080;2023-09-19T12:42:25;100458.41;;;17.04;100.00
76434;BME280;65265;53.200;6.080;2023-09-19T12:47:21;100457.56;;;17.03;100.00
76434;BME280;65265;53.200;6.080;2023-09-19T12:52:13;100468.75;;;17.04;100.00
76434;BME280;65265;53.200;6.080;2023-09-19T12:57:05;100475.66;;;17.05;100.00
76434;BME280;65265;53.200;6.080;2023-09-19T13:02:03;100494.53;;;16.96;100.00
76434;BME280;65265;53.200;6.080;2023-09-19T13:06:57;100485.81;;;16.86;100.00
76434;BME280;65265;53.200;6.080;2023-09-19T13:11:51;100492.75;;;16.88;100.00
76434;BME280;65265;53.200;6.080;2023-09-19T13:16:57;100473.72;;;16.80;100.00
76434;BME280;65265;53.200;6.080;2023-09-19T13:21:53;100456.50;;;16.79;100.00
76434;BME280;65265;53.200;6.080;2023-09-19T13:26:47;100442.78;;;16.88;100.00
76434;BME280;65265;53.200;6.080;2023-09-19T13:31:38;100449.72;;;16.90;100.00
76434;BME280;65265;53.200;6.080;2023-09-19T13:36:31;100465.34;;;17.09;100.00
76434;BME280;65265;53.200;6.080;2023-09-19T13:41:24;100447.31;;;17.15;100.00
76434;BME280;65265;53.200;6.080;2023-09-19T13:46:17;100443.13;;;17.34;100.00
76434;BME280;65265;53.200;6.080;2023-09-19T13:51:15;100422.56;;;17.46;100.00
76434;BME280;65265;53.200;6.080;2023-09-19T13:56:07;100424.31;;;17.48;100.00
76434;BME280;65265;53.200;6.080;2023-09-19T14:00:58;100420.88;;;17.51;100.00
76434;BME280;65265;53.200;6.080;2023-09-19T14:05:52;100415.75;;;17.63;100.00
76434;BME280;65265;53.200;6.080;2023-09-19T14:10:43;100428.63;;;17.51;100.00
76434;BME280;65265;53.200;6.080;2023-09-19T14:15:36;100437.19;;;17.42;100.00
76434;BME280;65265;53.200;6.080;2023-09-19T14:20:28;100456.03;;;17.29;100.00
76434;BME280;65265;53.200;6.080;2023-09-19T14:25:22;100446.50;;;17.18;100.00
76434;BME280;65265;53.200;6.080;2023-09-19T14:30:13;100453.34;;;17.16;100.00
76434;BME280;65265;53.200;6.080;2023-09-19T14:35:06;100424.91;;;17.11;100.00
76434;BME280;65265;53.200;6.080;2023-09-19T14:39:59;100437.00;;;17.17;100.00
76434;BME280;65265;53.200;6.080;2023-09-19T14:44:55;100443.13;;;17.34;100.00
76434;BME280;65265;53.200;6.080;2023-09-19T14:49:46;100444.00;;;17.33;100.00
76434;BME280;65265;53.200;6.080;2023-09-19T14:54:37;100452.63;;;17.33;100.00
76434;BME280;65265;53.200;6.080;2023-09-19T14:59:31;100427.56;;;17.22;100.00
76434;BME280;65265;53.200;6.080;2023-09-19T15:04:24;100425.78;;;17.16;100.00
76434;BME280;65265;53.200;6.080;2023-09-19T15:09:16;100437.91;;;17.22;100.00
76434;BME280;65265;53.200;6.080;2023-09-19T15:14:09;100443.09;;;17.26;100.00
76434;BME280;65265;53.200;6.080;2023-09-19T15:19:00;100448.28;;;17.28;100.00
76434;BME280;65265;53.200;6.080;2023-09-19T15:23:53;100453.38;;;17.17;100.00
76434;BME280;65265;53.200;6.080;2023-09-19T15:28:45;100462.81;;;17.14;100.00
76434;BME280;65265;53.200;6.080;2023-09-19T15:33:38;100455.03;;;17.11;100.00
76434;BME280;65265;53.200;6.080;2023-09-19T15:38:30;100454.22;;;17.13;100.00
76434;BME280;65265;53.200;6.080;2023-09-19T15:43:24;100449.06;;;17.16;100.00
76434;BME280;65265;53.200;6.080;2023-09-19T15:48:15;100457.56;;;17.02;100.00
76434;BME280;65265;53.200;6.080;2023-09-19T15:53:08;100469.53;;;16.92;100.00
76434;BME280;65265;53.200;6.080;2023-09-19T15:57:59;100463.47;;;16.86;100.00
76434;BME280;65265;53.200;6.080;2023-09-19T16:02:52;100478.84;;;16.74;100.00
76434;BME280;65265;53.200;6.080;2023-09-19T16:07:44;100464.09;;;16.63;100.00
76434;BME280;65265;53.200;6.080;2023-09-19T16:12:36;100463.19;;;16.56;100.00
76434;BME280;65265;53.200;6.080;2023-09-19T16:17:28;100474.28;;;16.48;100.00
76434;BME280;65265;53.200;6.080;2023-09-19T16:22:21;100460.50;;;16.46;100.00
76434;BME280;65265;53.200;6.080;2023-09-19T16:27:12;100461.31;;;16.40;100.00
76434;BME280;65265;53.200;6.080;2023-09-19T16:32:05;100458.66;;;16.37;100.00
76434;BME280;65265;53.200;6.080;2023-09-19T16:36:57;100466.41;;;16.37;100.00
76434;BME280;65265;53.200;6.080;2023-09-19T16:41:51;100455.94;;;16.25;100.00
76434;BME280;65265;53.200;6.080;2023-09-19T16:46:42;100466.31;;;16.28;100.00
76434;BME280;65265;53.200;6.080;2023-09-19T16:51:34;100464.56;;;16.27;100.00
76434;BME280;65265;53.200;6.080;2023-09-19T16:56:27;100473.19;;;16.28;100.00
76434;BME280;65265;53.200;6.080;2023-09-19T17:01:24;100471.34;;;16.21;100.00
76434;BME280;65265;53.200;6.080;2023-09-19T17:06:17;100465.34;;;16.22;100.00
76434;BME280;65265;53.200;6.080;2023-09-19T17:11:12;100477.34;;;16.17;100.00
76434;BME280;65265;53.200;6.080;2023-09-19T17:16:07;100464.38;;;16.09;100.00
76434;BME280;65265;53.200;6.080;2023-09-19T17:21:01;100479.88;;;16.12;100.00
76434;BME280;65265;53.200;6.080;2023-09-19T17:25:59;100488.44;;;16.10;100.00
76434;BME280;65265;53.200;6.080;2023-09-19T17:30:50;100485.84;;;16.10;100.00
76434;BME280;65265;53.200;6.080;2023-09-19T17:35:42;100483.28;;;16.08;100.00
76434;BME280;65265;53.200;6.080;2023-09-19T17:40:39;100476.38;;;16.09;100.00
76434;BME280;65265;53.200;6.080;2023-09-19T17:45:31;100489.34;;;16.12;100.00
76434;BME280;65265;53.200;6.080;2023-09-19T17:50:23;100476.41;;;16.10;100.00
76434;BME280;65265;53.200;6.080;2023-09-19T17:55:14;100469.50;;;16.06;100.00
76434;BME280;65265;53.200;6.080;2023-09-19T18:00:10;100476.28;;;16.01;100.00
76434;BME280;65265;53.200;6.080;2023-09-19T18:05:02;100476.25;;;15.95;100.00
76434;BME280;65265;53.200;6.080;2023-09-19T18:09:55;100472.75;;;15.93;100.00
76434;BME280;65265;53.200;6.080;2023-09-19T18:14:50;100479.59;;;15.91;100.00
76434;BME280;65265;53.200;6.080;2023-09-19T18:19:43;100478.69;;;15.88;100.00
76434;BME280;65265;53.200;6.080;2023-09-19T18:24:35;100487.34;;;15.91;100.00
76434;BME280;65265;53.200;6.080;2023-09-19T18:29:29;100476.22;;;15.94;100.00
76434;BME280;65265;53.200;6.080;2023-09-19T18:34:21;100486.47;;;15.89;100.00
76434;BME280;65265;53.200;6.080;2023-09-19T18:39:15;100482.19;;;15.90;100.00
76434;BME280;65265;53.200;6.080;2023-09-19T18:44:10;100496.81;;;15.91;100.00
76434;BME280;65265;53.200;6.080;2023-09-19T18:49:02;100484.75;;;15.88;100.00
76434;BME280;65265;53.200;6.080;2023-09-19T18:53:54;100483.03;;;15.90;100.00
76434;BME280;65265;53.200;6.080;2023-09-19T18:58:49;100500.31;;;15.94;100.00
76434;BME280;65265;53.200;6.080;2023-09-19T19:03:41;100503.75;;;15.96;100.00
76434;BME280;65265;53.200;6.080;2023-09-19T19:08:36;100494.31;;;15.98;100.00
76434;BME280;65265;53.200;6.080;2023-09-19T19:13:28;100509.00;;;16.04;100.00
76434;BME280;65265;53.200;6.080;2023-09-19T19:18:22;100503.03;;;16.08;100.00
76434;BME280;65265;53.200;6.080;2023-09-19T19:23:19;100497.06;;;16.10;100.00
76434;BME280;65265;53.200;6.080;2023-09-19T19:28:12;100497.03;;;16.07;100.00
76434;BME280;65265;53.200;6.080;2023-09-19T19:33:06;100488.38;;;16.04;100.00
76434;BME280;65265;53.200;6.080;2023-09-19T19:38:00;100488.41;;;16.05;100.00
76434;BME280;65265;53.200;6.080;2023-09-19T19:42:54;100504.69;;;16.04;100.00
76434;BME280;65265;53.200;6.080;2023-09-19T19:47:49;100496.09;;;16.02;100.00
76434;BME280;65265;53.200;6.080;2023-09-19T19:52:41;100485.78;;;16.04;100.00
76434;BME280;65265;53.200;6.080;2023-09-19T19:57:39;100500.44;;;16.08;100.00
76434;BME280;65265;53.200;6.080;2023-09-19T20:02:32;100503.88;;;16.05;100.00
76434;BME280;65265;53.200;6.080;2023-09-19T20:07:27;100514.22;;;16.08;100.00
76434;BME280;65265;53.200;6.080;2023-09-19T20:12:20;100495.34;;;16.12;100.00
76434;BME280;65265;53.200;6.080;2023-09-19T20:17:17;100510.06;;;16.19;100.00
76434;BME280;65265;53.200;6.080;2023-09-19T20:22:15;100516.91;;;16.16;100.00
76434;BME280;65265;53.200;6.080;2023-09-19T20:27:07;100509.19;;;16.17;100.00
76434;BME280;65265;53.200;6.080;2023-09-19T20:32:00;100506.59;;;16.19;100.00
76434;BME280;65265;53.200;6.080;2023-09-19T20:36:57;100501.47;;;16.20;100.00
76434;BME280;65265;53.200;6.080;2023-09-19T20:41:49;100497.22;;;16.25;100.00
76434;BME280;65265;53.200;6.080;2023-09-19T20:46:41;100489.53;;;16.28;100.00
76434;BME280;65265;53.200;6.080;2023-09-19T20:51:34;100499.88;;;16.31;100.00
76434;BME280;65265;53.200;6.080;2023-09-19T20:56:31;100487.91;;;16.36;100.00
76434;BME280;65265;53.200;6.080;2023-09-19T21:01:23;100492.22;;;16.37;100.00
76434;BME280;65265;53.200;6.080;2023-09-19T21:06:16;100487.91;;;16.36;100.00
76434;BME280;65265;53.200;6.080;2023-09-19T21:11:12;100501.78;;;16.44;100.00
76434;BME280;65265;53.200;6.080;2023-09-19T21:16:05;100501.81;;;16.46;100.00
76434;BME280;65265;53.200;6.080;2023-09-19T21:21:00;100503.47;;;16.44;100.00
76434;BME280;65265;53.200;6.080;2023-09-19T21:25:53;100501.84;;;16.52;100.00
76434;BME280;65265;53.200;6.080;2023-09-19T21:30:45;100494.94;;;16.49;100.00
76434;BME280;65265;53.200;6.080;2023-09-19T21:35:44;100497.53;;;16.51;100.00
76434;BME280;65265;53.200;6.080;2023-09-19T21:40:36;100496.69;;;16.52;100.00
76434;BME280;65265;53.200;6.080;2023-09-19T21:45:27;100492.41;;;16.54;100.00
76434;BME280;65265;53.200;6.080;2023-09-19T21:50:19;100496.75;;;16.59;100.00
76434;BME280;65265;53.200;6.080;2023-09-19T21:55:12;100494.22;;;16.62;100.00
76434;BME280;65265;53.200;6.080;2023-09-19T22:00:05;100490.78;;;16.65;100.00
76434;BME280;65265;53.200;6.080;2023-09-19T22:05:02;100493.31;;;16.60;100.00
76434;BME280;65265;53.200;6.080;2023-09-19T22:09:57;100489.09;;;16.65;100.00
76434;BME280;65265;53.200;6.080;2023-09-19T22:14:51;100499.44;;;16.68;100.00
76434;BME280;65265;53.200;6.080;2023-09-19T22:19:43;100494.31;;;16.70;100.00
76434;BME280;65265;53.200;6.080;2023-09-19T22:24:35;100494.28;;;16.68;100.00
76434;BME280;65265;53.200;6.080;2023-09-19T22:29:29;100509.75;;;16.65;100.00
76434;BME280;65265;53.200;6.080;2023-09-19T22:34:25;100503.69;;;16.65;100.00
76434;BME280;65265;53.200;6.080;2023-09-19T22:39:17;100502.81;;;16.63;100.00
76434;BME280;65265;53.200;6.080;2023-09-19T22:44:10;100503.69;;;16.65;100.00
76434;BME280;65265;53.200;6.080;2023-09-19T22:49:03;100511.41;;;16.59;100.00
76434;BME280;65265;53.200;6.080;2023-09-19T22:54:07;100509.72;;;16.62;100.00
76434;BME280;65265;53.200;6.080;2023-09-19T22:59:01;100508.91;;;16.69;100.00
76434;BME280;65265;53.200;6.080;2023-09-19T23:03:54;100503.75;;;16.68;100.00
76434;BME280;65265;53.200;6.080;2023-09-19T23:09:04;100507.22;;;16.71;100.00
76434;BME280;65265;53.200;6.080;2023-09-19T23:13:59;100515.00;;;16.74;100.00
76434;BME280;65265;53.200;6.080;2023-09-19T23:18:51;100504.69;;;16.74;100.00
76434;BME280;65265;53.200;6.080;2023-09-19T23:23:44;100513.34;;;16.82;100.00
76434;BME280;65265;53.200;6.080;2023-09-19T23:28:37;100522.81;;;16.82;100.00
76434;BME280;65265;53.200;6.080;2023-09-19T23:33:34;100527.97;;;16.80;100.00
76434;BME280;65265;53.200;6.080;2023-09-19T23:38:26;100522.81;;;16.79;100.00
76434;BME280;65265;53.200;6.080;2023-09-19T23:43:17;100532.31;;;16.83;100.00
76434;BME280;65265;53.200;6.080;2023-09-19T23:48:09;100531.38;;;16.76;100.00
76434;BME280;65265;53.200;6.080;2023-09-19T23:53:03;100527.91;;;16.74;100.00
76434;BME280;65265;53.200;6.080;2023-09-19T23:57:56;100550.28;;;16.72;100.00
